Time;durP1;ratioP1;P1;durP2;ratioP2;P2;SDS_P1;SDS_P2;PMS_P1;PMS_P2;Temp;Humidity;BMP_temperature;BMP_pressure;BME280_temperature;BME280_humidity;BME280_pressure;Samples;Min_cycle;Max_cycle;Signal;HPM_P1;HPM_P2
2022/12/25 00:01:39;;;;;;;6.03;4.60;;;;;;;5.50;87.09;95781.00;1795418;80;21034;-69
2022/12/25 00:04:06;;;;;;;8.97;4.93;;;;;;;5.46;87.27;95781.84;1795471;80;20967;-69
2022/12/25 00:06:32;;;;;;;5.73;4.33;;;;;;;5.40;87.19;95783.58;1795537;80;21003;-69
2022/12/25 00:08:59;;;;;;;5.67;4.27;;;;;;;5.33;87.29;95782.23;1795307;80;21441;-69
2022/12/25 00:11:25;;;;;;;11.40;5.03;;;;;;;5.25;87.21;95794.41;1795513;80;20999;-69
2022/12/25 00:13:52;;;;;;;8.20;4.90;;;;;;;5.17;87.39;95796.55;1795507;80;21472;-69
2022/12/25 00:16:22;;;;;;;6.70;4.77;;;;;;;5.14;87.62;95803.08;1795426;80;20963;-69
2022/12/25 00:18:50;;;;;;;8.50;4.80;;;;;;;5.05;87.21;95813.47;1795486;80;21037;-69
2022/12/25 00:21:17;;;;;;;7.13;3.73;;;;;;;4.97;87.90;95811.25;1795452;80;21017;-69
2022/12/25 00:23:44;;;;;;;7.43;5.10;;;;;;;4.92;87.78;95812.95;1795417;80;21082;-69
2022/12/25 00:26:14;;;;;;;9.33;3.97;;;;;;;4.90;88.03;95818.16;1795492;80;21050;-69
2022/12/25 00:28:41;;;;;;;8.77;4.43;;;;;;;4.85;88.09;95819.88;1795529;80;21448;-69
2022/12/25 00:31:12;;;;;;;7.97;4.07;;;;;;;4.85;88.18;95824.23;1795091;80;21019;-69
2022/12/25 00:33:42;;;;;;;6.93;4.53;;;;;;;4.83;88.32;95826.82;1794944;80;21499;-69
2022/12/25 00:36:11;;;;;;;8.10;4.73;;;;;;;4.78;88.09;95828.09;1795400;80;21079;-69
2022/12/25 00:38:39;;;;;;;7.13;4.17;;;;;;;4.73;88.19;95832.84;1795390;80;21026;-69
2022/12/25 00:41:10;;;;;;;5.27;3.83;;;;;;;4.65;87.95;95843.24;1795401;80;20994;-69
2022/12/25 00:43:37;;;;;;;6.30;4.37;;;;;;;4.60;88.08;95846.25;1795294;80;21090;-69
2022/12/25 00:46:05;;;;;;;7.37;4.03;;;;;;;4.57;88.79;95851.45;1795493;80;20978;-69
2022/12/25 00:48:34;;;;;;;5.77;3.60;;;;;;;4.55;88.69;95855.78;1795373;80;21065;-69
2022/12/25 00:51:04;;;;;;;6.27;4.30;;;;;;;4.54;88.82;95856.66;1795523;80;21046;-69
2022/12/25 00:53:31;;;;;;;9.87;4.73;;;;;;;4.58;89.11;95853.19;1795369;80;21029;-69
2022/12/25 00:56:02;;;;;;;6.53;4.47;;;;;;;4.61;88.99;95861.09;1795430;80;21022;-69
2022/12/25 00:58:31;;;;;;;5.70;3.30;;;;;;;4.64;88.95;95858.48;1795440;80;21058;-69
2022/12/25 01:00:58;;;;;;;4.37;3.33;;;;;;;4.68;89.29;95858.07;1795439;80;20998;-69
2022/12/25 01:03:25;;;;;;;7.00;4.70;;;;;;;4.67;89.02;95846.75;1795490;80;20998;-69
2022/12/25 01:05:59;;;;;;;8.00;2.90;;;;;;;4.65;89.10;95846.30;1795335;80;20967;-69
2022/12/25 01:08:26;;;;;;;;;;;;;;;4.69;89.33;95842.41;1798269;80;20982;-69
2022/12/25 01:11:04;;;;;;;7.80;4.03;;;;;;;4.72;89.46;95841.13;1795308;80;20103;-69
2022/12/25 01:13:33;;;;;;;11.03;4.00;;;;;;;4.66;89.17;95839.78;1795534;80;21473;-69
2022/12/25 01:16:08;;;;;;;6.60;4.40;;;;;;;4.62;89.00;95841.05;1795387;80;21046;-69
2022/12/25 01:18:35;;;;;;;8.40;4.17;;;;;;;4.48;88.71;95844.83;1795537;80;20991;-69
2022/12/25 01:21:07;;;;;;;6.37;3.77;;;;;;;4.42;89.02;95850.02;1795408;80;21002;-69
2022/12/25 01:23:34;;;;;;;6.57;2.87;;;;;;;4.33;89.10;95844.25;1795436;80;21033;-69
2022/12/25 01:26:06;;;;;;;7.93;2.90;;;;;;;4.28;89.31;95849.47;1795382;80;21046;-69
2022/12/25 01:28:33;;;;;;;8.83;4.70;;;;;;;4.30;89.43;95849.45;1795213;80;21502;-69
2022/12/25 01:31:00;;;;;;;10.20;4.87;;;;;;;4.34;90.20;95849.51;1795496;80;21260;-69
2022/12/25 01:33:27;;;;;;;9.20;5.17;;;;;;;4.34;89.76;95855.17;1795298;80;21046;-69
2022/12/25 01:35:54;;;;;;;7.87;3.77;;;;;;;4.29;89.40;95853.81;1795524;80;21491;-69
2022/12/25 01:38:21;;;;;;;6.70;3.23;;;;;;;4.38;90.41;95849.09;1795457;80;21006;-69
2022/12/25 01:40:47;;;;;;;5.80;3.30;;;;;;;4.40;90.04;95852.60;1795178;80;20991;-69
2022/12/25 01:43:30;;;;;;;5.47;3.27;;;;;;;4.36;89.62;95853.86;1795372;80;20998;-69
2022/12/25 01:45:57;;;;;;;;;;;;;;;4.36;89.80;95856.47;1798165;80;21014;-69
2022/12/25 01:48:34;;;;;;;10.37;6.00;;;;;;;4.38;90.03;95860.84;1761740;81;20383;-69
2022/12/25 01:51:12;;;;;;;11.37;5.67;;;;;;;4.37;89.89;95857.80;1761407;81;21045;-69
2022/12/25 01:53:39;;;;;;;8.87;5.13;;;;;;;4.29;89.38;95853.81;1792364;80;21009;-69
2022/12/25 01:56:07;;;;;;;11.33;5.67;;;;;;;4.26;89.56;95858.14;1792423;80;21064;-69
2022/12/25 01:58:34;;;;;;;8.57;5.50;;;;;;;4.24;89.78;95861.16;1792605;80;21081;-69
2022/12/25 02:01:03;;;;;;;8.07;5.10;;;;;;;4.28;90.15;95861.62;1792134;80;20981;-69
2022/12/25 02:03:30;;;;;;;7.00;4.90;;;;;;;4.29;89.77;95866.00;1792497;80;21025;-69
2022/12/25 02:05:59;;;;;;;8.00;4.97;;;;;;;4.35;90.52;95859.52;1792555;80;21483;-69
2022/12/25 02:08:26;;;;;;;9.90;4.87;;;;;;;4.37;90.22;95860.42;1792564;80;20949;-69
2022/12/25 02:10:53;;;;;;;7.50;5.07;;;;;;;4.42;90.12;95866.56;1792468;80;21028;-69
2022/12/25 02:13:20;;;;;;;5.53;3.30;;;;;;;4.36;89.42;95869.13;1792687;80;20994;-69
2022/12/25 02:16:07;;;;;;;6.27;3.67;;;;;;;4.31;89.62;95869.52;1792639;80;20985;-69
2022/12/25 02:18:53;;;;;;;5.47;3.30;;;;;;;4.26;89.51;95865.98;1792154;80;20986;-69
2022/12/25 02:21:58;;;;;;;7.87;3.60;;;;;;;4.25;89.84;95874.22;1792971;80;21069;-69
2022/12/25 02:24:36;;;;;;;5.40;2.97;;;;;;;4.20;89.64;95869.37;1792618;80;21013;-69
2022/12/25 02:27:14;;;;;;;6.70;3.43;;;;;;;4.08;89.30;95872.76;1792226;80;21009;-69
2022/12/25 02:29:49;;;;;;;6.20;3.83;;;;;;;4.02;89.77;95873.98;1788142;80;21052;-69
2022/12/25 02:32:36;;;;;;;5.23;3.80;;;;;;;4.03;90.22;95871.83;1792996;80;21064;-69
2022/12/25 02:35:08;;;;;;;7.00;4.57;;;;;;;4.00;90.04;95878.73;1780178;80;20989;-69
2022/12/25 02:37:41;;;;;;;7.17;4.27;;;;;;;;;;1792921;80;21013;-69
2022/12/25 02:40:21;;;;;;;7.55;5.03;;;;;;;3.87;90.33;95881.64;1793096;80;20997;-69
2022/12/25 03:11:29;;;;;;;8.77;5.17;;;;;;;3.91;89.86;95895.19;1801245;80;21424;-69
2022/12/25 03:11:30;;;;;;;10.93;4.67;;;;;;;3.84;89.70;95899.45;1796813;80;21049;-69
2022/12/25 03:16:53;;;;;;;10.67;5.10;;;;;;;3.81;89.87;95892.02;1801202;80;21001;-69
2022/12/25 03:27:56;;;;;;;6.23;3.20;;;;;;;3.78;90.25;95920.66;1801079;80;21010;-69
2022/12/25 03:33:37;;;;;;;4.70;3.50;;;;;;;3.83;90.10;95927.72;1801060;80;21014;-69
2022/12/25 03:36:27;;;;;;;7.30;2.93;;;;;;;3.85;90.44;95936.42;1801282;80;21006;-69
2022/12/25 03:41:03;;;;;;;3.50;2.50;;;;;;;3.92;90.44;95945.66;1801191;80;21002;-69
2022/12/25 04:37:56;;;;;;;29.63;16.77;;;;;;;4.06;90.46;95976.74;1795267;80;20947;-69
2022/12/25 04:40:23;;;;;;;15.87;8.60;;;;;;;4.02;90.44;95981.47;1795297;80;21492;-69
2022/12/25 04:42:51;;;;;;;10.70;5.93;;;;;;;3.98;90.20;95982.27;1795437;80;20974;-69
2022/12/25 04:45:18;;;;;;;7.33;5.50;;;;;;;3.94;90.38;95990.94;1795870;80;21034;-69
2022/12/25 04:47:44;;;;;;;8.00;4.67;;;;;;;3.85;89.77;95996.89;1795373;80;20978;-69
2022/12/25 04:50:11;;;;;;;8.33;5.67;;;;;;;3.77;90.09;95992.87;1795462;80;21492;-69
2022/12/25 04:52:39;;;;;;;6.00;4.50;;;;;;;3.72;90.26;95995.84;1795533;80;21050;-69
2022/12/25 04:55:08;;;;;;;8.90;5.03;;;;;;;3.61;89.73;95990.91;1795515;80;21057;-69
2022/12/25 04:57:35;;;;;;;6.57;4.63;;;;;;;3.55;89.84;95993.41;1795227;80;20998;-69
2022/12/25 05:00:01;;;;;;;7.53;5.10;;;;;;;3.47;89.90;95999.83;1795486;80;21014;-69
2022/12/25 05:02:28;;;;;;;10.90;5.97;;;;;;;3.42;90.04;96004.09;1795131;80;21006;-69
2022/12/25 05:04:54;;;;;;;10.27;6.30;;;;;;;3.41;90.53;96005.83;1795418;80;21496;-69
2022/12/25 05:07:21;;;;;;;10.73;6.13;;;;;;;3.41;90.81;96006.27;1795536;80;20998;-69
2022/12/25 05:09:47;;;;;;;12.70;6.20;;;;;;;3.35;90.46;96003.14;1764645;80;21034;-69
2022/12/25 05:12:14;;;;;;;6.73;5.23;;;;;;;3.28;90.12;96003.02;1795161;80;20943;-69
2022/12/25 05:14:40;;;;;;;8.23;4.80;;;;;;;3.16;89.97;96008.91;1795436;80;20986;-69
2022/12/25 05:17:07;;;;;;;6.47;4.77;;;;;;;3.11;90.44;96001.43;1795394;80;21472;-69
2022/12/25 05:19:34;;;;;;;9.83;4.90;;;;;;;3.06;90.24;96003.95;1795359;80;20990;-69
2022/12/25 05:22:00;;;;;;;8.10;5.27;;;;;;;3.01;90.43;96004.30;1795385;80;21015;-69
2022/12/25 05:24:27;;;;;;;7.47;5.00;;;;;;;2.95;90.43;96005.08;1795495;80;21424;-69
2022/12/25 05:26:54;;;;;;;7.93;4.90;;;;;;;2.92;90.38;96014.56;1795045;80;21086;-69
2022/12/25 05:29:20;;;;;;;5.07;3.80;;;;;;;2.89;90.86;96017.12;1795522;80;20990;-69
2022/12/25 05:31:47;;;;;;;5.93;4.20;;;;;;;2.87;90.50;96022.29;1795390;80;21488;-69
2022/12/25 05:34:13;;;;;;;6.23;4.63;;;;;;;2.77;90.30;96016.46;1795338;80;21464;-69
2022/12/25 05:36:40;;;;;;;8.47;4.30;;;;;;;2.68;90.38;96009.37;1795583;80;21006;-69
2022/12/25 05:39:06;;;;;;;6.90;4.23;;;;;;;2.56;90.31;96019.55;1795334;80;21021;-69
2022/12/25 05:41:33;;;;;;;8.27;4.77;;;;;;;2.51;90.64;96010.34;1795280;80;21053;-69
2022/12/25 05:43:59;;;;;;;7.93;4.47;;;;;;;2.59;91.37;96011.36;1795516;80;20963;-69
2022/12/25 05:46:25;;;;;;;8.37;4.03;;;;;;;2.62;91.26;96017.48;1795372;80;21045;-69
2022/12/25 05:48:52;;;;;;;5.57;3.83;;;;;;;2.63;91.16;96009.71;1784791;80;21461;-69
2022/12/25 05:51:18;;;;;;;5.53;3.70;;;;;;;2.63;91.43;96018.83;1787443;80;20967;-69
2022/12/25 05:53:45;;;;;;;7.53;3.40;;;;;;;2.67;91.35;96015.84;1780188;80;21058;-69
2022/12/25 05:56:11;;;;;;;4.10;3.03;;;;;;;2.68;91.38;96028.91;1787306;80;20995;-69
2022/12/25 05:58:39;;;;;;;5.40;3.30;;;;;;;2.65;90.98;96026.25;1787277;80;21011;-69
2022/12/25 06:01:13;;;;;;;5.47;3.30;;;;;;;2.60;90.60;96030.50;1787115;80;21433;-69
2022/12/25 06:03:40;;;;;;;4.40;3.40;;;;;;;2.52;90.35;96032.05;1786442;80;21062;-69
2022/12/25 06:06:07;;;;;;;6.80;3.80;;;;;;;2.50;90.64;96032.48;1787231;80;21464;-69
2022/12/25 06:08:34;;;;;;;9.87;4.70;;;;;;;2.45;91.02;96040.63;1787207;80;21461;-69
2022/12/25 06:11:06;;;;;;;8.10;5.50;;;;;;;2.40;90.55;96047.03;1786849;80;21058;-69
2022/12/25 06:13:35;;;;;;;13.33;7.00;;;;;;;2.44;91.68;96050.14;1787179;80;21026;-69
2022/12/25 06:16:07;;;;;;;8.47;3.13;;;;;;;2.50;91.69;96054.19;1787129;80;21437;-69
2022/12/25 06:18:36;;;;;;;6.35;3.45;;;;;;;2.34;90.40;96051.70;1787298;80;21003;-69
2022/12/25 06:21:08;;;;;;;9.23;4.40;;;;;;;2.24;90.49;96058.84;1787120;80;21078;-69
2022/12/25 06:23:36;;;;;;;5.43;3.67;;;;;;;2.20;90.70;96065.28;1787303;80;21007;-69
2022/12/25 06:26:05;;;;;;;6.20;3.70;;;;;;;2.14;90.86;96061.70;1787115;80;20997;-69
2022/12/25 06:28:32;;;;;;;7.13;4.73;;;;;;;2.14;90.87;96067.30;1787164;80;21003;-69
2022/12/25 06:31:07;;;;;;;10.37;5.70;;;;;;;2.07;90.84;96063.71;1787283;80;20999;-69
2022/12/25 06:33:35;;;;;;;11.40;4.17;;;;;;;2.05;90.93;96068.43;1787277;80;21007;-69
2022/12/25 06:36:15;;;;;;;7.83;5.03;;;;;;;2.12;91.84;96066.42;1787150;80;21453;-69
2022/12/25 06:38:42;;;;;;;10.70;5.57;;;;;;;2.19;92.11;96064.80;1787252;80;20971;-69
2022/12/25 06:41:14;;;;;;;16.40;8.00;;;;;;;2.23;91.90;96071.84;1786980;80;20987;-70
2022/12/25 06:43:40;;;;;;;9.00;6.00;;;;;;;2.19;91.49;96078.69;1786225;80;21019;-69
2022/12/25 06:46:10;;;;;;;9.10;5.30;;;;;;;2.10;90.98;96077.22;1787382;80;21062;-69
2022/12/25 06:48:39;;;;;;;8.77;5.70;;;;;;;2.01;90.91;96080.48;1787491;80;21161;-69
2022/12/25 06:51:07;;;;;;;10.20;6.30;;;;;;;1.96;91.26;96086.00;1787100;80;20995;-69
2022/12/25 06:53:34;;;;;;;10.07;6.23;;;;;;;1.99;91.57;96091.30;1787135;80;21054;-69
2022/12/25 06:56:08;;;;;;;9.80;4.80;;;;;;;2.00;91.78;96099.55;1787309;80;21481;-69
2022/12/25 06:58:34;;;;;;;9.27;5.13;;;;;;;1.95;91.31;96108.98;1787220;80;21015;-69
2022/12/25 07:01:13;;;;;;;10.10;5.57;;;;;;;1.95;91.47;96112.45;1787214;80;21018;-69
2022/12/25 07:03:36;;;;;;;7.50;4.30;;;;;;;1.99;91.67;96119.03;1786276;80;21458;-69
2022/12/25 07:06:02;;;;;;;9.30;5.30;;;;;;;2.02;91.70;96119.13;1787318;80;21014;-69
2022/12/25 07:08:29;;;;;;;7.57;4.33;;;;;;;1.98;91.40;96119.88;1787188;80;21489;-69
2022/12/25 07:10:56;;;;;;;5.83;4.40;;;;;;;1.89;90.71;96116.63;1787081;80;21007;-69
2022/12/25 07:13:22;;;;;;;8.77;5.47;;;;;;;1.79;90.77;96116.86;1787009;80;21010;-69
2022/12/25 07:15:58;;;;;;;8.37;5.93;;;;;;;1.74;91.07;96124.98;1787343;80;21551;-69
2022/12/25 07:18:25;;;;;;;8.00;5.57;;;;;;;1.82;91.93;96129.06;1787086;80;21528;-69
2022/12/25 07:20:54;;;;;;;33.53;21.40;;;;;;;1.93;92.22;96142.77;1787133;80;21042;-69
2022/12/25 07:23:24;;;;;;;14.63;9.70;;;;;;;1.89;91.74;96143.56;1787135;80;21042;-69
2022/12/25 07:25:59;;;;;;;9.93;5.43;;;;;;;1.87;91.25;96149.14;1787405;80;21488;-69
2022/12/25 07:28:26;;;;;;;12.33;6.63;;;;;;;1.81;91.18;96151.58;1787218;80;21011;-69
2022/12/25 07:30:53;;;;;;;8.17;5.90;;;;;;;1.84;91.48;96150.38;1787219;80;21019;-69
2022/12/25 07:33:19;;;;;;;7.53;5.17;;;;;;;1.89;91.77;96151.36;1787010;80;21011;-69
2022/12/25 07:35:46;;;;;;;10.97;5.60;;;;;;;1.99;92.00;96156.77;1787344;80;21038;-69
2022/12/25 07:38:13;;;;;;;18.67;12.37;;;;;;;2.11;92.02;96164.44;1787141;80;21504;-69
2022/12/25 07:40:40;;;;;;;25.23;16.80;;;;;;;2.21;91.89;96163.36;1787129;80;21003;-69
2022/12/25 07:43:06;;;;;;;21.97;14.17;;;;;;;2.21;91.26;96169.44;1786780;80;21079;-69
2022/12/25 07:45:33;;;;;;;20.07;15.23;;;;;;;2.24;91.29;96171.23;1787109;80;21050;-69
2022/12/25 07:47:59;;;;;;;8.97;6.23;;;;;;;2.25;91.12;96163.89;1787229;80;20979;-69
2022/12/25 07:50:26;;;;;;;31.33;20.63;;;;;;;2.27;91.14;96171.29;1787043;80;21480;-69
2022/12/25 07:52:52;;;;;;;42.30;23.17;;;;;;;2.31;91.78;96174.00;1787065;80;21029;-69
2022/12/25 07:55:19;;;;;;;14.70;10.40;;;;;;;2.35;91.50;96173.67;1787177;80;20987;-69
2022/12/25 07:57:45;;;;;;;11.87;8.70;;;;;;;2.36;91.32;96181.49;1787074;80;20967;-69
2022/12/25 08:00:14;;;;;;;39.10;26.80;;;;;;;2.47;92.00;96180.85;1787258;80;21460;-69
2022/12/25 08:02:40;;;;;;;15.67;10.60;;;;;;;2.51;92.21;96180.95;1787157;80;21042;-69
2022/12/25 08:05:08;;;;;;;21.47;13.13;;;;;;;2.61;92.43;96175.53;1787091;80;21540;-69
2022/12/25 08:07:35;;;;;;;27.93;18.83;;;;;;;2.66;92.10;96179.54;1787046;80;21433;-69
2022/12/25 08:10:02;;;;;;;15.87;9.87;;;;;;;2.71;91.91;96178.78;1786964;80;21011;-69
2022/12/25 08:12:29;;;;;;;11.60;8.13;;;;;;;2.69;91.50;96180.47;1786991;80;21512;-69
2022/12/25 08:14:55;;;;;;;13.43;9.53;;;;;;;2.71;91.83;96184.42;1787025;80;20995;-69
2022/12/25 08:17:22;;;;;;;9.23;7.47;;;;;;;2.76;91.89;96190.18;1787097;80;21504;-69
2022/12/25 08:19:48;;;;;;;15.90;8.97;;;;;;;2.76;91.62;96201.03;1787301;80;21058;-69
2022/12/25 08:22:14;;;;;;;11.47;7.87;;;;;;;2.76;91.58;96199.30;1787186;80;21031;-69
2022/12/25 08:24:41;;;;;;;9.23;6.37;;;;;;;2.77;91.59;96201.08;1754481;80;21022;-69
2022/12/25 08:27:08;;;;;;;38.70;20.43;;;;;;;2.84;91.56;96195.55;1787117;80;21006;-69
2022/12/25 08:29:34;;;;;;;125.10;66.90;;;;;;;2.84;91.35;96190.34;1787012;80;21034;-69
2022/12/25 08:32:00;;;;;;;51.13;29.33;;;;;;;2.99;92.40;96190.65;1787088;80;21533;-69
2022/12/25 08:34:27;;;;;;;52.00;28.17;;;;;;;3.24;92.69;96193.75;1787064;80;20975;-69
2022/12/25 08:36:53;;;;;;;31.40;21.40;;;;;;;3.41;92.59;96187.56;1787286;80;21031;-69
2022/12/25 08:39:20;;;;;;;18.43;14.53;;;;;;;3.64;93.00;96187.53;1787060;80;20995;-69
2022/12/25 08:41:47;;;;;;;21.57;14.13;;;;;;;3.83;93.01;96192.66;1787040;80;20983;-69
2022/12/25 08:44:13;;;;;;;13.37;9.80;;;;;;;4.06;93.12;96193.05;1787081;80;20975;-69
2022/12/25 08:46:40;;;;;;;12.60;8.43;;;;;;;4.14;91.72;96195.78;1787113;80;21441;-69
2022/12/25 08:49:06;;;;;;;23.27;13.37;;;;;;;4.07;90.49;96201.75;1789612;80;21556;-69
2022/12/25 08:51:33;;;;;;;16.83;11.07;;;;;;;4.04;90.57;96205.19;1795506;80;20995;-69
2022/12/25 08:54:00;;;;;;;15.67;11.13;;;;;;;4.07;91.19;96198.70;1795432;80;21512;-69
2022/12/25 08:56:26;;;;;;;17.00;11.17;;;;;;;4.08;91.06;96200.88;1795352;80;21011;-69
2022/12/25 08:58:53;;;;;;;22.23;13.77;;;;;;;4.07;90.97;96197.40;1795397;80;21489;-69
2022/12/25 09:01:19;;;;;;;17.50;10.63;;;;;;;4.12;91.88;96195.73;1795477;80;21050;-69
2022/12/25 09:03:46;;;;;;;15.83;11.03;;;;;;;4.16;91.02;96197.98;1795320;80;20998;-69
2022/12/25 09:06:15;;;;;;;18.30;13.00;;;;;;;4.28;91.70;96213.86;1795251;80;21015;-69
2022/12/25 09:08:42;;;;;;;24.53;15.43;;;;;;;4.40;91.89;96213.14;1795605;80;21045;-69
2022/12/25 09:11:13;;;;;;;32.43;22.93;;;;;;;4.64;92.62;96190.42;1795356;80;20978;-69
2022/12/25 09:13:40;;;;;;;18.77;12.90;;;;;;;4.82;92.45;96191.53;1795476;80;21066;-69
2022/12/25 09:16:10;;;;;;;25.40;15.77;;;;;;;4.94;91.32;96203.47;1795380;80;20995;-69
2022/12/25 09:18:37;;;;;;;25.83;19.47;;;;;;;4.91;90.85;96192.94;1795387;80;21006;-69
2022/12/25 09:21:07;;;;;;;21.83;14.40;;;;;;;5.02;91.53;96190.48;1795495;80;21021;-69
2022/12/25 09:23:34;;;;;;;22.13;14.50;;;;;;;5.20;92.22;96211.20;1795299;80;21041;-69
2022/12/25 09:26:03;;;;;;;12.87;8.43;;;;;;;5.22;90.78;96196.84;1795520;80;20990;-69
2022/12/25 09:28:30;;;;;;;15.63;11.63;;;;;;;5.33;91.28;96193.03;1795305;80;21014;-69
2022/12/25 09:30:58;;;;;;;14.87;9.93;;;;;;;5.47;91.24;96194.06;1795339;80;20967;-69
2022/12/25 09:33:25;;;;;;;12.23;7.73;;;;;;;5.61;91.00;96195.06;1795459;80;20983;-69
2022/12/25 09:35:59;;;;;;;12.43;7.57;;;;;;;5.79;91.23;96192.19;1795422;80;20963;-69
2022/12/25 09:38:26;;;;;;;11.17;6.87;;;;;;;5.93;90.56;96190.58;1795284;80;21085;-69
2022/12/25 09:41:18;;;;;;;11.17;7.10;;;;;;;6.10;89.31;96197.73;1795417;80;20993;-69
2022/12/25 09:43:53;;;;;;;7.00;4.60;;;;;;;6.23;89.12;96199.61;1795028;80;21027;-69
2022/12/25 09:46:26;;;;;;;8.50;5.00;;;;;;;6.38;86.77;96197.54;1786352;80;21118;-69
2022/12/25 09:49:21;;;;;;;10.17;6.40;;;;;;;6.66;85.66;96193.35;1794676;80;21089;-69
2022/12/25 09:51:56;;;;;;;9.50;5.50;;;;;;;7.03;84.53;96194.84;1787036;80;21030;-69
2022/12/25 09:54:28;;;;;;;7.77;5.47;;;;;;;7.51;80.25;96186.72;1787147;80;21082;-69
2022/12/25 09:56:54;;;;;;;8.98;4.90;;;;;;;7.86;78.78;96178.94;1785787;80;20998;-69
2022/12/25 09:59:26;;;;;;;10.72;6.62;;;;;;;8.21;76.13;96180.69;1786656;80;20964;-69
2022/12/25 10:02:04;;;;;;;12.93;5.97;;;;;;;8.53;76.71;96174.58;1787038;80;21054;-69
2022/12/25 10:04:36;;;;;;;6.37;5.12;;;;;;;8.85;74.20;96173.20;1786747;80;21015;-69
2022/12/25 10:07:14;;;;;;;11.40;7.42;;;;;;;9.11;72.52;96171.80;1785907;80;21485;-69
2022/12/25 10:10:28;;;;;;;8.58;6.78;;;;;;;9.41;73.14;96170.80;1785839;80;21007;-67
2022/12/25 10:13:12;;;;;;;13.45;9.78;;;;;;;9.74;72.01;96165.78;1786924;80;21042;-67
2022/12/25 10:16:04;;;;;;;7.97;6.20;;;;;;;10.02;69.22;96166.04;1787059;80;21007;-67
2022/12/25 10:18:50;;;;;;;7.75;6.15;;;;;;;10.19;68.45;96177.34;1787145;80;20944;-67
2022/12/25 10:21:18;;;;;;;7.55;5.37;;;;;;;10.48;67.69;96172.28;1786949;80;20991;-67
2022/12/25 10:23:55;;;;;;;6.97;5.53;;;;;;;10.57;66.28;96168.26;1787144;80;20999;-66
2022/12/25 10:26:24;;;;;;;10.85;6.62;;;;;;;10.77;67.37;96164.97;1782448;80;21507;-67
2022/12/25 10:29:14;;;;;;;6.72;5.20;;;;;;;11.04;66.18;96173.05;1786812;80;21003;-67
2022/12/25 10:31:48;;;;;;;8.95;4.62;;;;;;;11.26;64.35;96168.41;1787009;80;21007;-67
2022/12/25 10:34:16;;;;;;;5.58;3.80;;;;;;;11.58;65.20;96162.27;1786933;80;21070;-67
2022/12/25 10:36:48;;;;;;;6.25;3.35;;;;;;;11.84;61.95;96164.12;1787218;80;21003;-67
2022/12/25 10:39:18;;;;;;;5.00;3.47;;;;;;;12.15;61.81;96163.69;1787403;80;20986;-67
2022/12/25 10:42:39;;;;;;;5.55;3.25;;;;;;;12.59;62.56;96170.00;1787018;80;21015;-67
2022/12/25 10:45:08;;;;;;;12.78;7.78;;;;;;;12.96;61.25;96175.52;1704806;84;21064;-67
2022/12/25 10:47:41;;;;;;;4.47;3.20;;;;;;;13.40;60.53;96171.61;1750262;82;20998;-67
2022/12/25 10:50:15;;;;;;;2.70;1.83;;;;;;;13.62;56.15;96174.69;1792775;78;21009;-67
2022/12/25 10:53:04;;;;;;;2.30;2.10;;;;;;;13.68;53.17;96159.09;1828210;78;21679;-67
2022/12/25 10:55:32;;;;;;;2.72;1.57;;;;;;;13.92;53.69;96156.37;1831668;78;21532;-67
2022/12/25 10:58:00;;;;;;;5.00;3.52;;;;;;;14.03;53.00;96159.63;1831441;78;21023;-67
2022/12/25 11:00:31;;;;;;;2.12;1.40;;;;;;;14.38;53.65;96158.80;1831685;78;20980;-67
2022/12/25 11:02:58;;;;;;;6.10;4.00;;;;;;;14.47;49.19;96157.72;1831587;78;21518;-67
2022/12/25 11:05:31;;;;;;;2.00;0.95;;;;;;;14.84;51.09;96158.11;1831782;78;21004;-67
2022/12/25 11:08:01;;;;;;;8.33;7.62;;;;;;;14.66;45.79;96150.17;1831714;78;21019;-67
2022/12/25 11:10:35;;;;;;;5.22;4.05;;;;;;;14.73;47.21;96157.53;1831805;78;21053;-67
2022/12/25 11:13:09;;;;;;;2.37;1.40;;;;;;;14.92;47.73;96165.45;1831724;78;21121;-67
2022/12/25 11:15:45;;;;;;;2.92;2.30;;;;;;;14.99;46.03;96164.81;1831651;78;21438;-67
2022/12/25 11:18:22;;;;;;;4.42;2.90;;;;;;;14.90;44.82;96164.15;1831821;78;20996;-67
2022/12/25 11:20:58;;;;;;;1.90;1.65;;;;;;;14.76;43.85;96160.11;1831729;78;21034;-67
2022/12/25 11:23:28;;;;;;;5.85;5.28;;;;;;;14.60;43.44;96156.52;1831529;78;20999;-67
2022/12/25 11:26:05;;;;;;;2.77;2.15;;;;;;;14.85;45.40;96159.41;1831687;78;20960;-67
2022/12/25 11:28:36;;;;;;;9.08;7.87;;;;;;;15.00;44.74;96166.11;1831554;78;21032;-67
2022/12/25 11:31:13;;;;;;;5.03;4.55;;;;;;;15.04;43.90;96169.55;1831838;78;21465;-67
2022/12/25 11:34:28;;;;;;;4.10;3.70;;;;;;;15.43;42.86;96167.58;1831714;78;20976;-67
2022/12/25 11:36:57;;;;;;;1.67;1.05;;;;;;;15.54;41.28;96172.58;1830210;78;21494;-67
2022/12/25 11:39:34;;;;;;;5.20;4.75;;;;;;;15.41;40.66;96172.06;1831695;78;21000;-67
2022/12/25 11:42:26;;;;;;;3.77;2.58;;;;;;;15.19;42.36;96174.91;1831803;78;21457;-67
2022/12/25 11:45:07;;;;;;;2.10;1.67;;;;;;;14.84;41.36;96177.61;1831499;78;20992;-67
2022/12/25 11:48:03;;;;;;;3.37;1.10;;;;;;;14.37;43.04;96188.92;1831782;78;21011;-67
2022/12/25 11:50:38;;;;;;;3.92;2.67;;;;;;;13.83;42.80;96188.83;1831203;78;21561;-67
2022/12/25 11:53:18;;;;;;;2.65;1.77;;;;;;;13.25;43.75;96192.63;1831604;78;20980;-67
2022/12/25 11:55:55;;;;;;;32.63;29.25;;;;;;;13.29;45.28;96188.19;1831778;78;20944;-67
2022/12/25 11:58:27;;;;;;;3.17;2.30;;;;;;;13.18;46.28;96193.22;1831369;78;20995;-67
2022/12/25 12:00:57;;;;;;;4.03;3.42;;;;;;;12.88;44.48;96198.63;1799111;78;20972;-67
2022/12/25 12:03:37;;;;;;;3.17;2.30;;;;;;;12.64;46.60;96205.22;1831651;78;21034;-67
2022/12/25 12:06:33;;;;;;;6.12;5.55;;;;;;;12.56;47.68;96201.38;1830643;78;20976;-67
2022/12/25 12:09:26;;;;;;;10.45;9.53;;;;;;;12.44;47.21;96194.95;1831750;78;21034;-67
2022/12/25 12:12:07;;;;;;;4.12;2.12;;;;;;;12.18;46.31;96199.34;1831402;78;20960;-67
2022/12/25 12:15:00;;;;;;;1.77;1.50;;;;;;;12.02;47.30;96209.28;1810470;78;21016;-67
2022/12/25 12:17:26;;;;;;;4.70;4.12;;;;;;;11.51;48.24;96210.80;1832117;78;21027;-67
2022/12/25 12:19:53;;;;;;;3.60;1.80;;;;;;;11.04;49.57;96227.64;1831523;78;20992;-67
2022/12/25 12:22:26;;;;;;;2.45;1.35;;;;;;;10.77;49.69;96223.50;1831739;78;21015;-66
2022/12/25 12:25:00;;;;;;;2.45;1.82;;;;;;;10.70;50.10;96225.30;1831915;78;21003;-67
2022/12/25 12:27:37;;;;;;;7.62;3.02;;;;;;;10.39;51.51;96232.16;1831467;78;20932;-67
2022/12/25 12:30:06;;;;;;;2.83;2.00;;;;;;;10.12;52.36;96243.73;1831659;78;21004;-67
2022/12/25 12:32:38;;;;;;;4.00;2.77;;;;;;;9.83;53.57;96236.02;1831742;78;21446;-66
2022/12/25 12:35:10;;;;;;;4.70;4.30;;;;;;;9.63;53.95;96235.25;1831491;78;20992;-66
2022/12/25 12:37:40;;;;;;;4.20;3.75;;;;;;;9.55;54.46;96227.38;1831553;78;20991;-67
2022/12/25 12:40:12;;;;;;;8.35;6.15;;;;;;;9.40;54.73;96229.63;1831524;78;20995;-67
2022/12/25 12:42:45;;;;;;;4.10;2.85;;;;;;;9.25;56.51;96230.56;1818422;78;21010;-67
2022/12/25 12:45:25;;;;;;;3.27;1.22;;;;;;;9.07;58.24;96227.96;1831874;78;20987;-67
2022/12/25 12:47:52;;;;;;;2.15;1.20;;;;;;;8.86;58.58;96239.42;1831378;78;21031;-67
2022/12/25 12:50:40;;;;;;;2.00;1.10;;;;;;;8.73;60.99;96245.58;1831690;78;21577;-67
2022/12/25 12:53:24;;;;;;;1.82;1.10;;;;;;;8.73;60.94;96242.51;1831415;78;21004;-67
2022/12/25 12:55:52;;;;;;;1.45;0.95;;;;;;;8.45;63.24;96241.65;1831790;78;21012;-67
2022/12/25 12:58:34;;;;;;;2.35;1.30;;;;;;;8.34;63.76;96238.09;1831268;78;21067;-67
2022/12/25 13:01:25;;;;;;;4.33;1.87;;;;;;;8.16;63.51;96245.08;1831513;78;20980;-67
2022/12/25 13:04:28;;;;;;;10.65;7.58;;;;;;;8.08;64.75;96248.15;1830873;78;20991;-67
2022/12/25 13:07:05;;;;;;;;;;;;;;;8.03;64.38;96244.19;1834184;78;21051;-69
2022/12/25 13:10:03;;;;;;;13.20;9.15;;;;;;;7.84;65.67;96246.37;1831771;78;20117;-69
2022/12/25 13:12:30;;;;;;;11.15;7.05;;;;;;;7.74;65.80;96250.71;1831580;78;21043;-69
2022/12/25 13:14:58;;;;;;;12.95;9.48;;;;;;;7.58;67.93;96248.48;1831150;78;20996;-69
2022/12/25 13:17:27;;;;;;;4.85;3.92;;;;;;;7.52;67.28;96251.52;1827191;78;20983;-69
2022/12/25 13:19:57;;;;;;;5.33;3.20;;;;;;;7.41;67.80;96254.10;1831722;78;21011;-69
2022/12/25 13:22:32;;;;;;;5.97;3.98;;;;;;;7.25;67.75;96261.00;1831677;78;20984;-69
2022/12/25 13:25:03;;;;;;;6.83;3.60;;;;;;;7.07;69.26;96260.48;1831161;78;21031;-69
2022/12/25 13:27:32;;;;;;;4.72;3.22;;;;;;;6.99;69.11;96265.25;1831639;78;20971;-69
2022/12/25 13:29:59;;;;;;;5.92;2.45;;;;;;;6.80;68.94;96263.80;1831264;78;21019;-69
2022/12/25 13:32:29;;;;;;;4.33;2.40;;;;;;;6.59;69.80;96259.73;1831613;78;20952;-69
2022/12/25 13:34:57;;;;;;;5.70;2.12;;;;;;;6.44;69.50;96253.93;1831541;78;21015;-69